Time;durP1;ratioP1;P1;durP2;ratioP2;P2;SDS_P1;SDS_P2;PMS_P1;PMS_P2;Temp;Humidity;BMP_temperature;BMP_pressure;BME280_temperature;BME280_humidity;BME280_pressure;Samples;Min_cycle;Max_cycle;Signal;HPM_P1;HPM_P2
2023/06/24 00:02:02;;;;;;;7.18;5.47;;;16.50;99.90;;;;;;5014776;28;20511;-85
2023/06/24 00:04:28;;;;;;;7.40;5.65;;;16.40;99.90;;;;;;5066399;28;20080;-84
2023/06/24 00:06:58;;;;;;;7.70;6.30;;;16.40;99.90;;;;;;5030784;28;20060;-85
2023/06/24 00:09:25;;;;;;;9.73;5.72;;;16.40;99.90;;;;;;5031070;28;20064;-85
2023/06/24 00:11:50;;;;;;;10.93;5.45;;;16.50;99.90;;;;;;5031850;28;20041;-85
2023/06/24 00:14:16;;;;;;;8.63;5.38;;;16.40;99.90;;;;;;5030208;28;20051;-85
2023/06/24 00:16:42;;;;;;;9.38;6.22;;;16.40;99.90;;;;;;5031904;28;20048;-85
2023/06/24 00:19:08;;;;;;;7.22;5.75;;;16.40;99.90;;;;;;5047027;28;20055;-86
2023/06/24 00:21:34;;;;;;;6.88;5.18;;;16.40;99.90;;;;;;5031862;28;20036;-85
2023/06/24 00:24:04;;;;;;;8.93;5.32;;;16.30;99.90;;;;;;5031285;28;20376;-86
2023/06/24 00:26:31;;;;;;;9.25;5.90;;;16.30;99.90;;;;;;5065397;28;20074;-86
2023/06/24 00:28:58;;;;;;;9.05;5.63;;;16.30;99.90;;;;;;5048176;28;20040;-85
2023/06/24 00:31:24;;;;;;;6.97;5.10;;;16.20;99.90;;;;;;5046719;28;20411;-85
2023/06/24 00:33:52;;;;;;;7.20;5.80;;;16.80;99.90;;;;;;5031058;28;20420;-86
2023/06/24 00:36:17;;;;;;;9.82;6.68;;;16.20;99.90;;;;;;5029769;28;20478;-85
2023/06/24 00:38:43;;;;;;;5.70;4.78;;;16.10;99.90;;;;;;5065226;28;20048;-83
2023/06/24 00:41:10;;;;;;;9.90;5.22;;;16.10;99.90;;;;;;5030030;28;20062;-83
2023/06/24 00:43:35;;;;;;;8.38;5.60;;;16.10;99.90;;;;;;5029835;28;20436;-84
2023/06/24 00:46:02;;;;;;;6.60;5.90;;;16.10;99.90;;;;;;5065284;28;20036;-83
2023/06/24 00:48:28;;;;;;;7.00;5.68;;;17.80;99.90;;;;;;5046287;28;20447;-83
2023/06/24 00:50:54;;;;;;;5.45;4.65;;;16.10;99.90;;;;;;5065343;28;20394;-82
2023/06/24 00:53:24;;;;;;;9.88;5.60;;;16.10;99.90;;;;;;5063974;28;20059;-83
2023/06/24 00:55:52;;;;;;;10.57;5.85;;;16.00;99.90;;;;;;5065467;28;20074;-83
2023/06/24 00:58:20;;;;;;;5.95;5.20;;;16.00;99.90;;;;;;5045774;28;20139;-84
2023/06/24 01:00:48;;;;;;;7.72;5.18;;;16.00;99.90;;;;;;5064986;28;20045;-83
2023/06/24 01:03:13;;;;;;;7.80;5.65;;;15.90;99.90;;;;;;5066345;28;20122;-83
2023/06/24 01:05:46;;;;;;;6.43;5.38;;;15.90;99.90;;;;;;5032053;28;20041;-84
2023/06/24 01:08:15;;;;;;;8.48;5.05;;;15.90;99.90;;;;;;5049495;28;20098;-83
2023/06/24 01:10:41;;;;;;;8.30;5.93;;;15.80;99.90;;;;;;5049995;28;20040;-83
2023/06/24 01:13:07;;;;;;;6.38;5.20;;;15.80;99.90;;;;;;5075874;28;20053;-81
2023/06/24 01:15:33;;;;;;;8.38;5.35;;;15.80;99.90;;;;;;5079453;28;20044;-80
2023/06/24 01:18:28;;;;;;;6.88;5.28;;;15.80;99.90;;;;;;5069090;28;20441;-83
2023/06/24 01:21:08;;;;;;;9.15;6.82;;;15.70;99.90;;;;;;5047301;28;20083;-83
2023/06/24 01:24:12;;;;;;;9.65;7.95;;;15.70;99.90;;;;;;5046450;28;20435;-84
2023/06/24 01:27:20;;;;;;;12.20;8.80;;;15.70;99.90;;;;;;5045677;28;20048;-83
2023/06/24 01:30:28;;;;;;;11.02;7.15;;;15.70;99.90;;;;;;5047377;28;20036;-83
2023/06/24 01:32:59;;;;;;;12.20;7.78;;;15.70;99.90;;;;;;5046705;28;20040;-83
2023/06/24 01:35:30;;;;;;;9.80;7.40;;;15.60;99.90;;;;;;5029153;28;20282;-84
2023/06/24 01:37:59;;;;;;;9.43;6.47;;;15.60;99.90;;;;;;5047137;28;20045;-83
2023/06/24 01:40:30;;;;;;;11.07;6.55;;;15.60;99.90;;;;;;5029813;28;20397;-82
2023/06/24 01:43:03;;;;;;;11.05;6.65;;;15.60;99.90;;;;;;5047546;28;20287;-83
2023/06/24 01:45:40;;;;;;;8.57;6.32;;;15.60;99.90;;;;;;5046368;28;20052;-83
2023/06/24 01:48:08;;;;;;;8.68;6.70;;;15.50;99.90;;;;;;5063951;28;20414;-82
2023/06/24 01:50:36;;;;;;;8.82;6.50;;;15.50;99.90;;;;;;5046358;28;20053;-83
2023/06/24 01:53:05;;;;;;;10.40;7.50;;;15.50;99.90;;;;;;5063694;28;20059;-82
2023/06/24 01:55:32;;;;;;;9.57;7.03;;;15.60;99.90;;;;;;5064899;28;20041;-84
2023/06/24 01:57:59;;;;;;;9.95;7.65;;;15.50;99.90;;;;;;5046223;28;20041;-84
2023/06/24 02:00:26;;;;;;;11.60;7.85;;;15.50;99.90;;;;;;5029934;28;20200;-82
2023/06/24 02:02:54;;;;;;;13.57;8.38;;;15.40;99.90;;;;;;5046378;28;20114;-83
2023/06/24 02:05:21;;;;;;;10.10;8.13;;;15.50;99.90;;;;;;5063158;28;20123;-83
2023/06/24 02:07:52;;;;;;;12.32;8.57;;;15.50;99.90;;;;;;5064605;28;20052;-83
2023/06/24 02:10:20;;;;;;;11.77;7.63;;;15.50;99.90;;;;;;5032258;28;20044;-82
2023/06/24 02:12:47;;;;;;;13.82;9.10;;;15.50;99.90;;;;;;5050244;28;20843;-83
2023/06/24 02:15:14;;;;;;;13.40;8.60;;;15.30;99.90;;;;;;5068050;28;20110;-83
2023/06/24 02:17:41;;;;;;;19.42;9.65;;;15.50;99.90;;;;;;5067225;28;20041;-83
2023/06/24 02:20:10;;;;;;;13.23;9.32;;;15.60;99.90;;;;;;5049982;28;20050;-83
2023/06/24 02:22:39;;;;;;;13.18;10.02;;;15.60;99.90;;;;;;5048752;28;20048;-84
2023/06/24 02:25:06;;;;;;;11.52;8.70;;;15.60;99.90;;;;;;5049480;28;20048;-83
2023/06/24 02:27:34;;;;;;;11.15;8.07;;;15.60;99.90;;;;;;5032607;28;20055;-83
2023/06/24 02:30:02;;;;;;;12.80;9.05;;;16.40;99.90;;;;;;5067514;28;20561;-84
2023/06/24 02:32:27;;;;;;;13.85;8.07;;;15.70;99.90;;;;;;5049743;28;20048;-82
2023/06/24 02:34:53;;;;;;;13.25;9.07;;;15.70;99.90;;;;;;5032427;28;20047;-83
2023/06/24 02:37:19;;;;;;;10.50;8.18;;;15.70;99.90;;;;;;5017104;28;20083;-83
2023/06/24 02:39:45;;;;;;;16.15;8.38;;;15.70;99.90;;;;;;5032508;28;20051;-82
2023/06/24 02:42:11;;;;;;;15.95;9.50;;;15.70;99.90;;;;;;5052946;28;20040;-83
2023/06/24 02:44:41;;;;;;;11.82;8.77;;;15.80;99.90;;;;;;5037082;28;20058;-82
2023/06/24 02:47:10;;;;;;;17.35;9.27;;;15.80;99.90;;;;;;5050095;28;20079;-83
2023/06/24 02:49:38;;;;;;;12.70;9.52;;;15.80;99.90;;;;;;5065759;28;20112;-82
2023/06/24 02:52:05;;;;;;;13.98;9.02;;;15.80;99.90;;;;;;5033868;28;20141;-83
2023/06/24 02:54:31;;;;;;;10.98;9.05;;;15.80;99.90;;;;;;5001369;28;20039;-84
2023/06/24 02:56:58;;;;;;;10.82;8.43;;;15.90;99.90;;;;;;5032334;28;20135;-83
2023/06/24 02:59:24;;;;;;;15.73;9.40;;;15.90;99.90;;;;;;5032769;28;20041;-82
2023/06/24 03:01:51;;;;;;;11.63;8.35;;;15.90;99.90;;;;;;5031831;28;20115;-83
2023/06/24 03:04:18;;;;;;;12.75;8.57;;;15.90;99.90;;;;;;5049198;28;20068;-83
2023/06/24 03:06:45;;;;;;;13.20;9.30;;;15.90;99.90;;;;;;5032623;28;20059;-84
2023/06/24 03:09:11;;;;;;;13.45;9.90;;;15.90;99.90;;;;;;5066702;28;20044;-83
2023/06/24 03:11:43;;;;;;;12.45;9.65;;;15.90;99.90;;;;;;5067442;28;20078;-83
2023/06/24 03:14:10;;;;;;;13.70;10.52;;;15.90;99.90;;;;;;5048458;28;20101;-85
2023/06/24 03:16:38;;;;;;;15.18;10.57;;;15.90;99.90;;;;;;5067395;28;20080;-84
2023/06/24 03:19:04;;;;;;;17.02;10.85;;;15.90;99.90;;;;;;5048004;28;20074;-83
2023/06/24 03:21:30;;;;;;;14.25;9.70;;;15.90;99.90;;;;;;5047744;28;20143;-84
2023/06/24 03:23:56;;;;;;;14.73;10.07;;;15.90;99.90;;;;;;5032625;28;20128;-83
2023/06/24 03:26:22;;;;;;;13.82;9.90;;;15.90;99.90;;;;;;5047527;28;20071;-83
2023/06/24 03:28:48;;;;;;;14.98;9.13;;;15.90;99.90;;;;;;5067271;28;20041;-83
2023/06/24 03:31:17;;;;;;;12.55;9.75;;;15.90;99.90;;;;;;5047657;28;20356;-84
2023/06/24 03:33:44;;;;;;;13.18;10.23;;;15.90;99.90;;;;;;5048630;28;20052;-84
2023/06/24 03:36:10;;;;;;;14.43;9.75;;;15.90;99.90;;;;;;5048601;28;20042;-84
2023/06/24 03:38:36;;;;;;;14.20;8.52;;;15.90;99.90;;;;;;5048404;28;20040;-83
2023/06/24 03:41:02;;;;;;;11.93;8.73;;;15.90;99.90;;;;;;5048430;28;20045;-83
2023/06/24 03:43:28;;;;;;;10.13;8.18;;;15.90;99.90;;;;;;5047272;28;20037;-85
2023/06/24 03:45:54;;;;;;;13.55;8.75;;;16.00;99.90;;;;;;5031781;28;20126;-84
2023/06/24 03:48:20;;;;;;;11.88;8.63;;;15.90;99.90;;;;;;5030579;28;20222;-83
2023/06/24 03:50:46;;;;;;;13.38;7.82;;;15.90;99.90;;;;;;5066859;28;20092;-84
2023/06/24 03:53:12;;;;;;;12.50;8.40;;;15.90;99.90;;;;;;4998576;28;20044;-84
2023/06/24 03:55:37;;;;;;;10.35;7.07;;;16.00;99.90;;;;;;5031870;28;20040;-84
2023/06/24 03:58:03;;;;;;;11.98;7.82;;;16.00;99.90;;;;;;5032104;28;20093;-84
2023/06/24 04:00:29;;;;;;;11.90;8.13;;;16.00;99.90;;;;;;5065169;28;20421;-84
2023/06/24 04:02:54;;;;;;;11.15;8.02;;;16.00;99.90;;;;;;5066545;28;20051;-83
2023/06/24 04:05:21;;;;;;;15.05;8.00;;;16.00;99.90;;;;;;5030922;28;20040;-84
2023/06/24 04:07:47;;;;;;;11.73;6.93;;;16.00;99.90;;;;;;5048067;28;20048;-85
2023/06/24 04:10:13;;;;;;;8.82;7.25;;;16.00;99.90;;;;;;5047122;28;20036;-85
2023/06/24 04:12:39;;;;;;;10.48;6.95;;;16.10;99.90;;;;;;5048161;28;20045;-85
2023/06/24 04:15:05;;;;;;;10.35;7.25;;;16.10;99.90;;;;;;5067120;28;20051;-84
2023/06/24 04:17:31;;;;;;;8.60;5.95;;;16.10;99.90;;;;;;5056963;28;20524;-85
2023/06/24 04:19:58;;;;;;;11.00;7.35;;;16.10;99.90;;;;;;5080577;28;20037;-82
2023/06/24 04:22:24;;;;;;;9.27;6.65;;;16.20;99.90;;;;;;5052927;28;20041;-85
2023/06/24 04:24:50;;;;;;;10.57;6.90;;;16.20;99.90;;;;;;5048784;28;20065;-85
2023/06/24 04:27:16;;;;;;;7.43;5.75;;;16.20;99.90;;;;;;5032139;28;20125;-85
2023/06/24 04:29:42;;;;;;;12.15;6.38;;;16.30;99.90;;;;;;5049628;28;20055;-84
2023/06/24 04:32:07;;;;;;;11.20;6.95;;;16.30;99.90;;;;;;5031384;28;20084;-84
2023/06/24 04:34:33;;;;;;;8.52;6.15;;;16.40;99.90;;;;;;5047165;28;20045;-84
2023/06/24 04:36:59;;;;;;;7.90;5.70;;;16.50;99.90;;;;;;5031672;28;20048;-85
2023/06/24 04:39:24;;;;;;;8.25;4.97;;;16.50;99.90;;;;;;5064959;28;20134;-84
2023/06/24 04:41:50;;;;;;;12.57;6.47;;;16.60;99.90;;;;;;5066038;28;20044;-85
2023/06/24 04:44:16;;;;;;;7.00;5.57;;;16.70;99.90;;;;;;5047334;28;20048;-83
2023/06/24 04:46:42;;;;;;;8.15;5.05;;;16.80;99.90;;;;;;5065573;28;20187;-84
2023/06/24 04:49:08;;;;;;;6.95;4.93;;;16.80;99.90;;;;;;5065588;28;20041;-84
2023/06/24 04:51:33;;;;;;;8.13;5.28;;;16.90;99.90;;;;;;5064925;28;20409;-83
2023/06/24 04:54:00;;;;;;;10.35;5.40;;;17.00;99.90;;;;;;5030841;28;20083;-83
2023/06/24 04:56:26;;;;;;;5.85;5.22;;;17.10;99.90;;;;;;5064542;28;20048;-83
2023/06/24 04:58:52;;;;;;;7.05;5.18;;;17.00;99.90;;;;;;5047498;28;20130;-83
2023/06/24 05:01:18;;;;;;;9.13;5.03;;;17.10;99.90;;;;;;5029373;28;20044;-85
2023/06/24 05:03:43;;;;;;;7.38;5.30;;;17.10;99.90;;;;;;5030364;28;20071;-84
2023/06/24 05:06:09;;;;;;;10.32;5.40;;;17.20;99.90;;;;;;5065167;28;20117;-84
2023/06/24 05:08:35;;;;;;;7.50;5.25;;;17.20;99.90;;;;;;5065084;28;20126;-85
2023/06/24 05:11:00;;;;;;;12.13;5.97;;;17.30;99.90;;;;;;5014340;28;20063;-85
2023/06/24 05:13:27;;;;;;;8.80;5.25;;;17.30;99.90;;;;;;5046232;28;20047;-85
2023/06/24 05:15:53;;;;;;;8.35;5.20;;;17.40;99.90;;;;;;5047496;28;20037;-85
2023/06/24 05:18:19;;;;;;;7.22;5.55;;;17.50;99.90;;;;;;5046224;28;20117;-85
2023/06/24 05:20:45;;;;;;;8.15;5.82;;;17.90;99.90;;;;;;5046971;28;20044;-84
2023/06/24 05:23:10;;;;;;;7.78;5.50;;;17.60;99.90;;;;;;5030232;28;20045;-83
2023/06/24 05:25:36;;;;;;;10.98;6.75;;;17.70;99.90;;;;;;5064117;28;20091;-85
2023/06/24 05:28:02;;;;;;;9.82;6.70;;;17.80;99.90;;;;;;5064967;28;20047;-83
2023/06/24 05:30:28;;;;;;;9.10;5.93;;;17.90;99.90;;;;;;5045754;28;20048;-85
2023/06/24 05:32:54;;;;;;;8.23;6.00;;;17.90;99.90;;;;;;5064303;28;20277;-84
2023/06/24 05:35:19;;;;;;;8.35;6.53;;;18.00;99.90;;;;;;5064247;28;20055;-87
2023/06/24 05:37:45;;;;;;;8.10;6.18;;;18.10;99.90;;;;;;4998177;28;20135;-84
2023/06/24 05:40:12;;;;;;;7.82;5.93;;;18.20;99.90;;;;;;5046327;28;20090;-86
2023/06/24 05:42:38;;;;;;;8.95;6.00;;;18.40;99.90;;;;;;5030747;28;20354;-83
2023/06/24 05:45:06;;;;;;;8.65;6.20;;;18.50;99.90;;;;;;5050810;28;20342;-83
2023/06/24 05:47:32;;;;;;;7.05;5.38;;;18.60;99.90;;;;;;5050664;28;20071;-85
2023/06/24 05:49:58;;;;;;;7.50;4.82;;;18.80;99.90;;;;;;5050735;28;20117;-83
2023/06/24 05:52:24;;;;;;;7.45;5.07;;;18.90;99.90;;;;;;5069675;28;20490;-84
2023/06/24 05:54:49;;;;;;;7.97;5.47;;;19.00;99.90;;;;;;5038817;28;20043;-84
2023/06/24 05:57:15;;;;;;;8.23;5.50;;;19.10;99.90;;;;;;5050460;28;20037;-83
2023/06/24 05:59:41;;;;;;;7.43;5.07;;;19.20;99.90;;;;;;5038733;28;20104;-83
2023/06/24 06:02:07;;;;;;;9.05;5.68;;;19.30;99.90;;;;;;5027428;28;20045;-83
2023/06/24 06:04:32;;;;;;;5.93;5.28;;;19.40;99.90;;;;;;5050793;28;20439;-85
2023/06/24 06:06:58;;;;;;;7.85;5.80;;;19.50;99.90;;;;;;5050611;28;20066;-85
2023/06/24 06:09:24;;;;;;;9.30;5.20;;;19.60;99.90;;;;;;5033208;28;20093;-85
2023/06/24 06:11:49;;;;;;;7.57;5.05;;;19.80;99.90;;;;;;5033745;28;20509;-86
2023/06/24 06:14:15;;;;;;;8.75;5.60;;;20.00;99.90;;;;;;5033130;28;20041;-88
2023/06/24 06:16:41;;;;;;;6.85;5.22;;;20.20;99.90;;;;;;5017759;28;20123;-88
2023/06/24 06:19:07;;;;;;;8.50;5.22;;;20.40;99.90;;;;;;5033857;28;20055;-87
2023/06/24 06:21:32;;;;;;;7.13;4.32;;;20.60;99.90;;;;;;5032634;28;20048;-86
2023/06/24 06:23:58;;;;;;;8.05;5.32;;;20.70;99.90;;;;;;5033731;28;20430;-86
2023/06/24 06:26:24;;;;;;;6.93;5.53;;;20.80;99.90;;;;;;5067051;28;20131;-88
2023/06/24 06:28:49;;;;;;;6.35;5.00;;;20.90;99.90;;;;;;5033813;28;20045;-85
2023/06/24 06:31:16;;;;;;;6.55;5.63;;;21.00;99.90;;;;;;5049522;28;20450;-87
2023/06/24 06:33:43;;;;;;;10.00;5.20;;;21.00;99.90;;;;;;5049941;28;20056;-85
2023/06/24 06:36:08;;;;;;;6.90;5.28;;;21.10;99.90;;;;;;5034131;28;20438;-86
2023/06/24 06:38:34;;;;;;;8.38;6.07;;;21.10;99.90;;;;;;5016420;28;20059;-86
2023/06/24 06:41:00;;;;;;;11.55;5.05;;;21.20;99.90;;;;;;5050262;28;20405;-85
2023/06/24 06:43:26;;;;;;;6.82;5.55;;;21.30;99.90;;;;;;5067090;28;20036;-84
2023/06/24 06:45:52;;;;;;;9.93;5.40;;;21.40;99.90;;;;;;5050013;28;20648;-85
2023/06/24 06:48:18;;;;;;;7.45;4.85;;;21.40;99.90;;;;;;5067350;28;20041;-85
2023/06/24 06:50:45;;;;;;;12.80;5.53;;;21.50;99.90;;;;;;5032579;28;20412;-87
2023/06/24 06:53:11;;;;;;;8.95;6.30;;;21.50;99.90;;;;;;5067618;28;20539;-85
2023/06/24 06:55:40;;;;;;;7.70;5.28;;;21.60;99.90;;;;;;5048090;28;20139;-88
2023/06/24 21:26:18;;;;;;;5.80;3.97;;;20.00;99.90;;;;;;5161358;27;1342763;-84
2023/06/24 21:28:44;;;;;;;7.50;3.53;;;19.90;99.90;;;;;;5152216;27;20046;-84
2023/06/24 21:31:10;;;;;;;4.53;3.75;;;19.80;99.90;;;;;;5117119;27;20039;-82
2023/06/24 21:33:37;;;;;;;6.72;3.88;;;19.70;99.90;;;;;;5117891;27;20523;-82
2023/06/24 21:36:03;;;;;;;5.15;3.60;;;19.70;99.90;;;;;;5168987;27;20069;-83
2023/06/24 21:38:28;;;;;;;6.85;4.00;;;19.60;99.90;;;;;;5134257;27;20046;-82
2023/06/24 21:40:54;;;;;;;7.28;4.20;;;19.60;99.90;;;;;;5169206;27;20049;-85
2023/06/24 21:43:20;;;;;;;7.88;4.03;;;19.60;99.90;;;;;;5134575;27;20069;-85
2023/06/24 21:45:46;;;;;;;5.78;3.58;;;19.60;99.90;;;;;;5134134;27;20051;-86
2023/06/24 21:48:11;;;;;;;11.57;5.32;;;19.50;99.90;;;;;;5130192;27;20367;-85
2023/06/24 21:50:37;;;;;;;6.97;4.38;;;19.40;99.90;;;;;;5131331;27;20047;-84
2023/06/24 21:53:03;;;;;;;7.38;5.18;;;19.40;99.90;;;;;;5112294;27;20119;-85
2023/06/24 21:55:28;;;;;;;6.88;5.20;;;19.40;99.90;;;;;;5131353;27;20046;-85
2023/06/24 21:57:55;;;;;;;8.82;5.47;;;19.30;99.90;;;;;;5095278;27;20446;-85
2023/06/24 22:00:20;;;;;;;5.72;4.97;;;19.30;99.90;;;;;;5114019;27;20476;-86
2023/06/24 22:02:46;;;;;;;5.40;4.57;;;19.30;99.90;;;;;;5130703;27;20070;-86
2023/06/24 23:41:12;;;;;;;11.48;8.82;;;18.50;99.90;;;;;;5107828;28;20172;-84
2023/06/24 23:43:38;;;;;;;12.68;8.75;;;18.40;99.90;;;;;;5076936;28;20043;-83
2023/06/24 23:46:04;;;;;;;10.18;7.90;;;18.50;99.90;;;;;;5092563;28;20089;-84
2023/06/24 23:48:30;;;;;;;11.98;8.50;;;18.40;99.90;;;;;;5109184;28;20043;-82
2023/06/24 23:50:56;;;;;;;12.40;7.45;;;18.40;99.90;;;;;;5111649;28;20044;-83
2023/06/24 23:53:21;;;;;;;13.05;8.90;;;18.40;99.90;;;;;;5092492;28;20047;-82
2023/06/24 23:55:53;;;;;;;11.52;8.00;;;18.40;99.90;;;;;;5111692;28;20489;-83
2023/06/24 23:58:18;;;;;;;11.32;8.00;;;18.40;99.90;;;;;;5108772;28;20100;-83
